createdAt,value
2022-11-07T00:00:10.208Z,11.23
2022-11-07T00:05:41.150Z,11.03
2022-11-07T00:10:44.308Z,12.23
2022-11-07T00:15:47.201Z,11.57
2022-11-07T00:20:50.106Z,11.60
2022-11-07T00:25:53.101Z,10.67
2022-11-07T00:30:58.697Z,11.20
2022-11-07T00:36:02.069Z,11.63
2022-11-07T00:41:06.548Z,12.03
2022-11-07T00:46:11.085Z,12.33
2022-11-07T00:51:16.220Z,12.03
2022-11-07T00:56:21.450Z,11.67
2022-11-07T01:01:30.120Z,12.37
2022-11-07T01:06:36.597Z,12.03
2022-11-07T01:11:40.123Z,13.00
2022-11-07T01:16:43.420Z,13.23
2022-11-07T01:21:46.651Z,13.03
2022-11-07T01:26:49.695Z,13.40
2022-11-07T01:31:52.788Z,14.37
2022-11-07T01:36:56.120Z,15.23
2022-11-07T01:41:59.379Z,14.83
2022-11-07T01:47:02.524Z,15.23
2022-11-07T01:52:30.607Z,15.03
2022-11-07T01:57:37.812Z,14.00
2022-11-07T02:02:41.366Z,15.47
2022-11-07T02:07:44.699Z,15.37
2022-11-07T02:12:48.029Z,15.20
2022-11-07T02:17:51.128Z,16.03
2022-11-07T02:23:09.812Z,14.20
2022-11-07T02:28:14.064Z,16.23
2022-11-07T02:33:21.964Z,15.67
2022-11-07T02:38:36.322Z,15.47
2022-11-07T02:43:42.586Z,16.27
2022-11-07T02:48:51.079Z,17.03
2022-11-07T02:53:54.164Z,15.30
2022-11-07T02:58:57.129Z,15.60
2022-11-07T03:04:00.055Z,16.20
2022-11-07T03:09:03.052Z,15.70
2022-11-07T03:14:06.352Z,15.87
2022-11-07T03:19:09.560Z,15.47
2022-11-07T03:24:12.718Z,14.63
2022-11-07T03:29:16.070Z,14.83
2022-11-07T03:34:19.345Z,15.73
2022-11-07T03:39:25.752Z,15.63
2022-11-07T03:44:29.070Z,14.43
2022-11-07T03:49:32.142Z,15.77
2022-11-07T03:54:35.275Z,15.23
2022-11-07T03:59:38.241Z,16.17
2022-11-07T04:04:41.328Z,19.03
2022-11-07T04:09:44.359Z,19.77
2022-11-07T04:15:05.790Z,19.50
2022-11-07T04:20:09.639Z,14.93
2022-11-07T04:25:12.919Z,16.33
2022-11-07T04:30:20.358Z,15.67
2022-11-07T04:35:25.794Z,16.53
2022-11-07T04:40:29.617Z,16.93
2022-11-07T04:45:32.450Z,17.40
2022-11-07T04:50:35.279Z,20.27
2022-11-07T04:55:38.468Z,17.37
2022-11-07T05:00:43.901Z,16.97
2022-11-07T05:05:47.105Z,18.17
2022-11-07T05:10:50.418Z,17.23
2022-11-07T05:15:53.566Z,18.73
2022-11-07T05:20:56.657Z,17.90
2022-11-07T05:25:59.636Z,17.87
2022-11-07T05:31:04.700Z,19.87
2022-11-07T05:36:19.318Z,18.83
2022-11-07T05:41:22.233Z,19.70
2022-11-07T05:46:25.304Z,23.90
2022-11-07T05:51:28.253Z,22.80
2022-11-07T05:56:31.312Z,21.80
2022-11-07T06:01:34.385Z,22.00
2022-11-07T06:06:37.569Z,22.47
2022-11-07T06:11:40.612Z,23.30
2022-11-07T06:16:43.932Z,22.80
2022-11-07T06:21:46.981Z,24.80
2022-11-07T06:26:50.085Z,23.70
2022-11-07T06:31:53.051Z,29.57
2022-11-07T06:37:02.676Z,24.70
2022-11-07T06:42:06.025Z,26.03
2022-11-07T06:47:09.575Z,26.60
2022-11-07T06:52:12.646Z,28.17
2022-11-07T06:57:15.667Z,26.27
2022-11-07T07:02:37.286Z,27.47
2022-11-07T07:07:41.932Z,27.33
2022-11-07T07:12:45.040Z,26.63
2022-11-07T07:17:48.043Z,28.93
2022-11-07T07:22:57.808Z,26.47
2022-11-07T07:28:03.329Z,27.13
2022-11-07T07:33:06.309Z,27.40
2022-11-07T07:38:09.679Z,25.27
2022-11-07T07:43:13.154Z,25.63
2022-11-07T07:48:16.630Z,27.27
2022-11-07T07:53:19.456Z,25.80
2022-11-07T07:58:22.509Z,25.57
2022-11-07T08:03:29.386Z,25.50
2022-11-07T08:08:40.910Z,23.67
2022-11-07T08:13:44.050Z,24.77
2022-11-07T08:18:47.126Z,24.80
2022-11-07T08:23:53.765Z,22.80
2022-11-07T08:28:57.199Z,23.50
2022-11-07T08:34:00.534Z,24.83
2022-11-07T08:39:03.768Z,24.20
2022-11-07T08:44:08.496Z,24.27
2022-11-07T08:49:11.697Z,25.63
2022-11-07T08:54:14.899Z,23.43
2022-11-07T08:59:18.014Z,24.13
2022-11-07T09:04:23.751Z,22.80
2022-11-07T09:09:26.898Z,25.03
2022-11-07T09:14:32.219Z,24.70
2022-11-07T09:19:35.231Z,21.97
2022-11-07T09:24:38.656Z,21.67
2022-11-07T09:29:41.823Z,21.93
2022-11-07T09:34:54.366Z,22.57
2022-11-07T09:40:00.089Z,22.13
2022-11-07T09:45:03.773Z,24.03
2022-11-07T09:50:49.413Z,21.60
2022-11-07T09:55:54.056Z,21.20
2022-11-07T10:01:01.535Z,21.73
2022-11-07T10:06:24.351Z,21.13
2022-11-07T10:11:44.595Z,23.60
2022-11-07T10:17:12.540Z,21.60
2022-11-07T10:22:24.851Z,26.73
2022-11-07T10:27:27.952Z,22.43
2022-11-07T10:32:52.917Z,18.53
2022-11-07T10:37:57.602Z,19.00
2022-11-07T10:43:02.081Z,18.73
2022-11-07T10:48:05.837Z,21.50
2022-11-07T10:53:19.098Z,18.83
2022-11-07T10:58:23.410Z,18.87
2022-11-07T11:03:43.301Z,20.20
2022-11-07T11:08:49.141Z,19.87
2022-11-07T11:14:05.116Z,18.77
2022-11-07T11:19:19.414Z,18.47
2022-11-07T11:24:26.272Z,16.00
2022-11-07T11:29:42.156Z,16.80
2022-11-07T11:35:08.670Z,17.60
2022-11-07T11:40:21.643Z,18.53
2022-11-07T11:45:27.470Z,16.00
2022-11-07T11:50:41.789Z,17.27
2022-11-07T11:56:07.923Z,15.20
2022-11-07T12:01:29.389Z,15.33
2022-11-07T12:06:42.523Z,15.67
2022-11-07T12:11:51.798Z,16.63
2022-11-07T12:17:15.139Z,15.30
2022-11-07T12:22:59.862Z,16.80
2022-11-07T12:28:35.047Z,14.80
2022-11-07T12:34:03.230Z,17.27
2022-11-07T12:39:12.293Z,16.27
2022-11-07T12:44:33.681Z,14.27
2022-11-07T12:49:39.686Z,13.80
2022-11-07T12:54:52.068Z,12.60
2022-11-07T13:00:17.934Z,12.07
2022-11-07T13:05:55.903Z,12.13
2022-11-07T13:11:13.661Z,12.77
2022-11-07T13:16:29.567Z,11.87
2022-11-07T13:21:43.438Z,11.40
2022-11-07T13:26:47.652Z,11.90
2022-11-07T13:32:07.840Z,12.40
2022-11-07T13:37:19.696Z,11.63
2022-11-07T13:42:26.255Z,11.33
2022-11-07T13:47:37.987Z,14.40
2022-11-07T13:52:45.254Z,13.20
2022-11-07T13:57:56.261Z,22.43
2022-11-07T14:02:59.970Z,16.60
2022-11-07T14:08:12.205Z,11.97
2022-11-07T14:13:25.870Z,17.10
2022-11-07T14:18:33.313Z,21.40
2022-11-07T14:23:37.051Z,11.97
2022-11-07T14:28:41.113Z,16.67
2022-11-07T14:33:52.730Z,15.57
2022-11-07T14:39:02.425Z,10.83
2022-11-07T14:50:57.543Z,12.00
2022-11-07T14:56:04.535Z,12.93
2022-11-07T15:01:07.558Z,15.27
2022-11-07T15:06:21.926Z,15.67
2022-11-07T15:11:28.466Z,25.83
2022-11-07T15:16:39.391Z,17.13
2022-11-07T15:21:52.256Z,12.67
2022-11-07T15:27:04.091Z,23.53
2022-11-07T15:32:18.382Z,17.53
2022-11-07T15:37:24.141Z,12.37
2022-11-07T15:42:27.232Z,29.77
2022-11-07T15:47:30.319Z,21.33
2022-11-07T15:52:33.422Z,15.40
2022-11-07T15:57:36.721Z,19.73
2022-11-07T16:02:40.308Z,21.60
2022-11-07T16:07:44.701Z,16.40
2022-11-07T16:12:48.778Z,19.80
2022-11-07T16:17:51.697Z,12.53
2022-11-07T16:22:55.020Z,12.10
2022-11-07T16:28:00.046Z,19.03
2022-11-07T16:33:04.092Z,17.80
2022-11-07T16:38:16.293Z,11.30
2022-11-07T16:43:20.234Z,11.37
2022-11-07T16:48:25.644Z,12.17
2022-11-07T16:53:28.670Z,18.73
2022-11-07T16:58:34.498Z,14.13
2022-11-07T17:03:37.384Z,11.73
2022-11-07T17:08:41.556Z,25.23
2022-11-07T17:13:45.337Z,26.43
2022-11-07T17:18:49.295Z,16.67
2022-11-07T17:23:53.534Z,17.87
2022-11-07T17:28:57.849Z,15.43
2022-11-07T17:34:01.022Z,15.33
2022-11-07T17:39:12.162Z,9.47
2022-11-07T17:44:15.514Z,9.93
2022-11-07T17:49:19.630Z,9.47
2022-11-07T17:54:26.802Z,13.07
2022-11-07T17:59:32.521Z,9.07
2022-11-07T18:04:35.632Z,11.77
2022-11-07T18:09:40.663Z,7.93
2022-11-07T18:14:43.448Z,8.70
2022-11-07T18:19:48.342Z,8.97
2022-11-07T18:24:51.782Z,10.50
2022-11-07T18:29:57.061Z,10.23
2022-11-07T18:35:00.008Z,11.67
2022-11-07T18:40:03.458Z,10.80
2022-11-07T18:45:07.280Z,19.80
2022-11-07T18:50:11.370Z,9.50
2022-11-07T18:55:14.495Z,7.77
2022-11-07T19:00:17.593Z,11.43
2022-11-07T19:05:21.399Z,10.97
2022-11-07T19:10:24.699Z,8.63
2022-11-07T19:15:30.182Z,9.03
2022-11-07T19:20:34.429Z,8.07
2022-11-07T19:25:46.277Z,8.10
2022-11-07T19:30:49.428Z,8.67
2022-11-07T19:36:02.388Z,9.50
2022-11-07T19:41:09.164Z,9.00
2022-11-07T19:46:15.792Z,8.10
2022-11-07T19:51:22.438Z,8.60
2022-11-07T19:56:31.046Z,9.03
2022-11-07T20:01:35.333Z,16.47
2022-11-07T20:06:40.031Z,18.00
2022-11-07T20:11:43.336Z,45.83
2022-11-07T20:16:46.493Z,38.03
2022-11-07T20:21:49.525Z,11.90
2022-11-07T20:26:52.737Z,9.53
2022-11-07T20:31:55.676Z,7.97
2022-11-07T20:36:58.636Z,7.77
2022-11-07T20:42:01.779Z,7.27
2022-11-07T20:47:05.410Z,7.27
2022-11-07T20:52:08.531Z,7.33
2022-11-07T20:57:12.925Z,7.60
2022-11-07T21:02:16.186Z,13.70
2022-11-07T21:07:20.055Z,8.30
2022-11-07T21:12:23.682Z,8.77
2022-11-07T21:17:26.705Z,8.13
2022-11-07T21:22:29.848Z,7.73
2022-11-07T21:27:37.127Z,7.43
2022-11-07T21:32:40.948Z,7.47
2022-11-07T21:37:46.454Z,7.23
2022-11-07T21:42:49.394Z,7.43
2022-11-07T21:47:52.770Z,7.23
2022-11-07T21:52:55.812Z,7.73
2022-11-07T21:57:59.284Z,7.03
2022-11-07T22:03:02.616Z,6.40
2022-11-07T22:08:06.139Z,9.50
2022-11-07T22:13:09.640Z,7.27
2022-11-07T22:18:12.861Z,9.23
2022-11-07T22:23:16.296Z,9.27
2022-11-07T22:28:19.686Z,6.67
2022-11-07T22:33:22.882Z,6.53
2022-11-07T22:38:26.016Z,7.03
2022-11-07T22:43:32.073Z,6.90
2022-11-07T22:48:38.351Z,8.27
2022-11-07T22:53:41.679Z,5.97
2022-11-07T22:58:45.811Z,6.57
2022-11-07T23:03:49.389Z,6.03
2022-11-07T23:08:53.206Z,5.70
2022-11-07T23:14:03.206Z,6.73
2022-11-07T23:19:08.634Z,5.87
2022-11-07T23:24:11.937Z,7.83
2022-11-07T23:29:18.347Z,5.77
2022-11-07T23:34:22.436Z,6.03
2022-11-07T23:39:26.522Z,6.20
2022-11-07T23:44:29.412Z,6.13
2022-11-07T23:49:51.062Z,6.00
2022-11-07T23:55:12.825Z,5.43
